METAR AND TAF INFORMATION
METAR FOR LESO
ADDS - METARS form results

(0426 UTC 21 August 2017)
Data provider http://aviationweather.gov/adds/metars/
 
METAR text: LESO 210400Z VRB01KT CAVOK 16/15 Q1021
Conditions at: LESO (SAN SEBASTIAN/FU, ES) observed 0400 UTC 21 August 2017
Temperature: 16.0°C (61°F)
Dewpoint: 15.0°C (59°F) [RH = 94%]
Pressure (altimeter): 30.15 inches Hg (1021.0 mb)
Winds: variable direction winds at 1 MPH (1 knots; 0.5 m/s)
Visibility: 6 or more miles (10+ km)
Ceiling: ceiling and visibility are OK
Clouds: unknown
Weather: no significant weather observed at this time

METAR text: LESO 210330Z 12002KT CAVOK 16/15 Q1021
Conditions at: LESO (SAN SEBASTIAN/FU, ES) observed 0330 UTC 21 August 2017
Temperature: 16.0°C (61°F)
Dewpoint: 15.0°C (59°F) [RH = 94%]
Pressure (altimeter): 30.15 inches Hg (1021.0 mb)
Winds: from the ESE (120 degrees) at 2 MPH (2 knots; 1.0 m/s)
Visibility: 6 or more miles (10+ km)
Ceiling: ceiling and visibility are OK
Clouds: unknown
Weather: no significant weather observed at this time

Forecast for: LESO (SAN SEBASTIAN/FU, ES)
Text: TAF LESO 202300Z 2100/2124 VRB03KT CAVOK TX31/2115Z TN16/2106Z
Forecast period: 0000 to 1000 UTC 21 August 2017
Forecast type: FROM: standard forecast or significant change
Winds: variable direction winds at 3 MPH (3 knots; 1.6 m/s)
Visibility: 6 or more miles (10+ km)
Clouds: not forecast
Weather: no significant weather forecast for this period
Text: BECMG 2110/2114 03010KT
Forecast period: 1000 to 1900 UTC 21 August 2017
Forecast type: BECOMING: Conditions expected to become as follows by 1400 UTC 21 August 2017
Winds: from the NNE (30 degrees) at 12 MPH (10 knots; 5.2 m/s)
Visibility: 6 or more miles (10+ km)
Weather: no significant weather forecast for this period
Text: BECMG 2119/2123 10005KT
Forecast period: 1900 UTC 21 August 2017 to 0000 UTC 22 August 2017
Forecast type: BECOMING: Conditions expected to become as follows by 2300 UTC 21 August 2017
Winds: from the E (100 degrees) at 6 MPH (5 knots; 2.6 m/s)
Visibility: 6 or more miles (10+ km)
Weather: no significant weather forecast for this period

 AIRPORT MAP

 RUNWAY INFORMATION
Runway 04 Runway length 5755 ft Runway width 148 ft
Runway elevation 10 ft Runway displaced threshold 0 ft Runway heading 39
Runway 22 Runway length 5755 ft Runway width 148 ft
Runway elevation 15 ft Runway displaced threshold 0 ft Runway heading 219

 AIRPORT FREQUENCIES
Type TWR Name SAN SEBAST Frequency 119.85 MHZ

 AIRPORT NEAR NAVIGATION AIDS
Type NDB-DME Name San Sebastian Frequency 328 KHZ
Type VOR-DME Name San Sebastian Frequency 117900 KHZ







Air Nostrum Virtual © 2017

a VAG member

Policy Privacy | Rules | Powered by VAM [V2.6.2] | Customized by Jz © 2017 for Air Nostrum Virtual